Terminal Aerodrome Forecast
Issued by NWS Charleston, WV

Home | Current Version | Previous Version | Text Only | Print | Product List | Glossary On
Versions: 1 2 3 4 5 6 7 8 9 10 11 12 13 14 15 16 17 18 19 20 21 22 23 24 25 26 27
518
FTUS41 KRLX 240237 AAA
TAFPKB
TAF AMD
KPKB 240237Z 2403/2424 22010KT P6SM OVC020
      TEMPO 2403/2407 -SHRA BKN015
     FM240700 21009KT P6SM OVC015
     FM241200 20008KT P6SM OVC025
     FM241400 22011KT P6SM VCSH BKN035
     FM242100 23009KT P6SM SCT040
     FM242300 24008KT P6SM BKN045=

USA.gov is the U.S. government's official web portal to all federal, state and local government web resources and services.